sensor_id;sensor_type;location;lat;lon;timestamp;P1;durP1;ratioP1;P2;durP2;ratioP2
22937;SDS011;11634;42.734;23.298;2023-02-01T00:01:59;7.17;;;6.30;;
22937;SDS011;11634;42.734;23.298;2023-02-01T00:04:25;6.13;;;5.53;;
22937;SDS011;11634;42.734;23.298;2023-02-01T00:06:50;7.30;;;6.03;;
22937;SDS011;11634;42.734;23.298;2023-02-01T00:09:16;6.40;;;5.73;;
22937;SDS011;11634;42.734;23.298;2023-02-01T00:11:41;7.07;;;6.37;;
22937;SDS011;11634;42.734;23.298;2023-02-01T00:14:07;9.43;;;6.77;;
22937;SDS011;11634;42.734;23.298;2023-02-01T00:16:34;7.17;;;6.47;;
22937;SDS011;11634;42.734;23.298;2023-02-01T00:21:30;8.30;;;6.73;;
22937;SDS011;11634;42.734;23.298;2023-02-01T00:23:57;7.30;;;6.53;;
22937;SDS011;11634;42.734;23.298;2023-02-01T00:26:33;6.97;;;6.00;;
22937;SDS011;11634;42.734;23.298;2023-02-01T00:28:59;9.70;;;6.57;;
22937;SDS011;11634;42.734;23.298;2023-02-01T00:31:28;8.20;;;5.83;;
22937;SDS011;11634;42.734;23.298;2023-02-01T00:33:53;6.40;;;5.80;;
22937;SDS011;11634;42.734;23.298;2023-02-01T00:36:19;9.40;;;5.93;;
22937;SDS011;11634;42.734;23.298;2023-02-01T00:38:45;7.60;;;5.77;;
22937;SDS011;11634;42.734;23.298;2023-02-01T00:41:12;9.50;;;6.70;;
22937;SDS011;11634;42.734;23.298;2023-02-01T00:43:39;6.70;;;6.00;;
22937;SDS011;11634;42.734;23.298;2023-02-01T00:46:07;6.77;;;6.10;;
22937;SDS011;11634;42.734;23.298;2023-02-01T00:48:35;7.07;;;5.50;;
22937;SDS011;11634;42.734;23.298;2023-02-01T00:51:04;6.67;;;5.00;;
22937;SDS011;11634;42.734;23.298;2023-02-01T00:53:34;7.03;;;4.93;;
22937;SDS011;11634;42.734;23.298;2023-02-01T00:56:00;6.13;;;5.03;;
22937;SDS011;11634;42.734;23.298;2023-02-01T00:58:26;6.07;;;5.33;;
22937;SDS011;11634;42.734;23.298;2023-02-01T01:01:08;7.77;;;5.30;;
22937;SDS011;11634;42.734;23.298;2023-02-01T01:03:36;7.67;;;4.00;;
22937;SDS011;11634;42.734;23.298;2023-02-01T01:06:05;6.60;;;4.47;;
22937;SDS011;11634;42.734;23.298;2023-02-01T01:08:33;6.60;;;4.97;;
22937;SDS011;11634;42.734;23.298;2023-02-01T01:11:05;5.87;;;4.20;;
22937;SDS011;11634;42.734;23.298;2023-02-01T01:13:33;6.87;;;4.23;;
22937;SDS011;11634;42.734;23.298;2023-02-01T01:16:01;4.87;;;4.30;;
22937;SDS011;11634;42.734;23.298;2023-02-01T01:18:28;4.73;;;4.33;;
22937;SDS011;11634;42.734;23.298;2023-02-01T01:20:55;5.47;;;4.30;;
22937;SDS011;11634;42.734;23.298;2023-02-01T01:23:21;33.80;;;19.30;;
22937;SDS011;11634;42.734;23.298;2023-02-01T01:25:47;5.47;;;4.00;;
22937;SDS011;11634;42.734;23.298;2023-02-01T01:28:14;4.60;;;4.03;;
22937;SDS011;11634;42.734;23.298;2023-02-01T01:30:40;5.07;;;3.97;;
22937;SDS011;11634;42.734;23.298;2023-02-01T01:33:05;4.43;;;3.83;;
22937;SDS011;11634;42.734;23.298;2023-02-01T01:35:31;5.87;;;3.90;;
22937;SDS011;11634;42.734;23.298;2023-02-01T01:37:58;4.67;;;3.03;;
22937;SDS011;11634;42.734;23.298;2023-02-01T01:40:24;3.67;;;3.27;;
22937;SDS011;11634;42.734;23.298;2023-02-01T01:42:50;4.93;;;3.73;;
22937;SDS011;11634;42.734;23.298;2023-02-01T01:48:39;5.63;;;3.93;;
22937;SDS011;11634;42.734;23.298;2023-02-01T01:50:55;3.27;;;2.97;;
22937;SDS011;11634;42.734;23.298;2023-02-01T01:53:33;3.27;;;2.93;;
22937;SDS011;11634;42.734;23.298;2023-02-01T01:56:04;6.47;;;4.10;;
22937;SDS011;11634;42.734;23.298;2023-02-01T01:58:31;2.70;;;2.50;;
22937;SDS011;11634;42.734;23.298;2023-02-01T02:00:58;4.23;;;3.30;;
22937;SDS011;11634;42.734;23.298;2023-02-01T02:03:30;3.80;;;3.07;;
22937;SDS011;11634;42.734;23.298;2023-02-01T02:06:02;3.80;;;3.43;;
22937;SDS011;11634;42.734;23.298;2023-02-01T02:08:31;4.93;;;3.70;;
22937;SDS011;11634;42.734;23.298;2023-02-01T02:10:58;4.23;;;3.57;;
22937;SDS011;11634;42.734;23.298;2023-02-01T02:13:34;4.97;;;4.20;;
22937;SDS011;11634;42.734;23.298;2023-02-01T02:16:05;4.83;;;3.87;;
22937;SDS011;11634;42.734;23.298;2023-02-01T02:21:51;8.40;;;4.63;;
22937;SDS011;11634;42.734;23.298;2023-02-01T02:42:29;4.83;;;3.67;;
22937;SDS011;11634;42.734;23.298;2023-02-01T02:48:36;7.17;;;3.70;;
22937;SDS011;11634;42.734;23.298;2023-02-01T02:56:58;4.47;;;3.70;;
22937;SDS011;11634;42.734;23.298;2023-02-01T02:59:46;5.03;;;3.80;;
22937;SDS011;11634;42.734;23.298;2023-02-01T03:02:32;5.03;;;2.90;;
22937;SDS011;11634;42.734;23.298;2023-02-01T03:05:17;3.00;;;2.70;;
22937;SDS011;11634;42.734;23.298;2023-02-01T03:10:50;3.43;;;2.80;;
22937;SDS011;11634;42.734;23.298;2023-02-01T03:18:56;4.13;;;2.20;;
22937;SDS011;11634;42.734;23.298;2023-02-01T03:21:33;4.73;;;3.17;;
22937;SDS011;11634;42.734;23.298;2023-02-01T03:24:06;4.13;;;3.30;;
22937;SDS011;11634;42.734;23.298;2023-02-01T03:26:40;4.27;;;3.00;;
22937;SDS011;11634;42.734;23.298;2023-02-01T03:29:12;5.47;;;2.90;;
22937;SDS011;11634;42.734;23.298;2023-02-01T03:31:43;4.03;;;2.80;;
22937;SDS011;11634;42.734;23.298;2023-02-01T03:34:11;7.47;;;3.70;;
22937;SDS011;11634;42.734;23.298;2023-02-01T03:36:40;3.87;;;3.40;;
22937;SDS011;11634;42.734;23.298;2023-02-01T03:39:30;6.53;;;3.27;;
22937;SDS011;11634;42.734;23.298;2023-02-01T03:42:00;4.77;;;2.83;;
22937;SDS011;11634;42.734;23.298;2023-02-01T03:44:31;3.73;;;2.90;;
22937;SDS011;11634;42.734;23.298;2023-02-01T03:47:16;6.77;;;2.93;;
22937;SDS011;11634;42.734;23.298;2023-02-01T03:49:52;4.93;;;2.70;;
22937;SDS011;11634;42.734;23.298;2023-02-01T03:52:22;3.03;;;2.57;;
22937;SDS011;11634;42.734;23.298;2023-02-01T03:54:54;3.90;;;2.77;;
22937;SDS011;11634;42.734;23.298;2023-02-01T03:57:27;3.97;;;3.23;;
22937;SDS011;11634;42.734;23.298;2023-02-01T04:00:03;3.17;;;2.33;;
22937;SDS011;11634;42.734;23.298;2023-02-01T04:02:39;5.83;;;2.90;;
22937;SDS011;11634;42.734;23.298;2023-02-01T04:05:04;3.03;;;2.40;;
22937;SDS011;11634;42.734;23.298;2023-02-01T04:07:32;4.07;;;2.80;;
22937;SDS011;11634;42.734;23.298;2023-02-01T04:09:57;3.37;;;2.40;;
22937;SDS011;11634;42.734;23.298;2023-02-01T04:12:23;5.37;;;2.60;;
22937;SDS011;11634;42.734;23.298;2023-02-01T04:14:49;4.30;;;2.33;;
22937;SDS011;11634;42.734;23.298;2023-02-01T04:17:15;5.07;;;2.80;;
22937;SDS011;11634;42.734;23.298;2023-02-01T04:19:41;4.90;;;3.00;;
22937;SDS011;11634;42.734;23.298;2023-02-01T04:22:06;5.73;;;2.43;;
22937;SDS011;11634;42.734;23.298;2023-02-01T04:24:32;5.03;;;2.93;;
22937;SDS011;11634;42.734;23.298;2023-02-01T04:26:58;3.73;;;2.80;;
22937;SDS011;11634;42.734;23.298;2023-02-01T04:29:23;4.93;;;2.80;;
22937;SDS011;11634;42.734;23.298;2023-02-01T04:31:48;4.03;;;2.80;;
22937;SDS011;11634;42.734;23.298;2023-02-01T04:34:16;2.50;;;2.30;;
22937;SDS011;11634;42.734;23.298;2023-02-01T04:36:42;3.37;;;2.53;;
22937;SDS011;11634;42.734;23.298;2023-02-01T04:39:08;5.80;;;2.97;;
22937;SDS011;11634;42.734;23.298;2023-02-01T04:41:35;3.07;;;2.70;;
22937;SDS011;11634;42.734;23.298;2023-02-01T04:44:01;4.67;;;3.20;;
22937;SDS011;11634;42.734;23.298;2023-02-01T04:46:28;4.47;;;2.97;;
22937;SDS011;11634;42.734;23.298;2023-02-01T04:48:53;3.10;;;2.80;;
22937;SDS011;11634;42.734;23.298;2023-02-01T04:51:19;5.70;;;3.27;;
22937;SDS011;11634;42.734;23.298;2023-02-01T04:53:44;8.17;;;3.00;;
22937;SDS011;11634;42.734;23.298;2023-02-01T04:56:10;4.90;;;3.10;;
22937;SDS011;11634;42.734;23.298;2023-02-01T04:58:35;5.27;;;3.10;;
22937;SDS011;11634;42.734;23.298;2023-02-01T05:01:05;2.60;;;2.37;;
22937;SDS011;11634;42.734;23.298;2023-02-01T05:03:32;5.47;;;3.70;;
22937;SDS011;11634;42.734;23.298;2023-02-01T05:05:58;6.53;;;4.43;;
22937;SDS011;11634;42.734;23.298;2023-02-01T05:08:26;6.10;;;4.30;;
22937;SDS011;11634;42.734;23.298;2023-02-01T05:10:53;6.43;;;3.83;;
22937;SDS011;11634;42.734;23.298;2023-02-01T05:13:20;6.03;;;4.47;;
22937;SDS011;11634;42.734;23.298;2023-02-01T05:16:04;6.27;;;4.40;;
22937;SDS011;11634;42.734;23.298;2023-02-01T05:18:30;4.80;;;3.30;;
22937;SDS011;11634;42.734;23.298;2023-02-01T05:20:55;9.77;;;4.03;;
22937;SDS011;11634;42.734;23.298;2023-02-01T05:23:21;5.03;;;4.40;;
22937;SDS011;11634;42.734;23.298;2023-02-01T05:25:50;7.23;;;3.60;;
22937;SDS011;11634;42.734;23.298;2023-02-01T05:28:15;4.60;;;3.67;;
22937;SDS011;11634;42.734;23.298;2023-02-01T05:30:45;5.00;;;3.27;;
22937;SDS011;11634;42.734;23.298;2023-02-01T05:33:11;4.30;;;3.80;;
22937;SDS011;11634;42.734;23.298;2023-02-01T05:35:39;5.40;;;4.13;;
22937;SDS011;11634;42.734;23.298;2023-02-01T05:38:05;5.67;;;4.03;;
22937;SDS011;11634;42.734;23.298;2023-02-01T05:40:36;6.73;;;4.00;;
22937;SDS011;11634;42.734;23.298;2023-02-01T05:43:02;5.63;;;4.03;;
22937;SDS011;11634;42.734;23.298;2023-02-01T05:45:28;5.90;;;4.20;;
22937;SDS011;11634;42.734;23.298;2023-02-01T05:47:53;7.40;;;4.10;;
22937;SDS011;11634;42.734;23.298;2023-02-01T05:50:21;5.10;;;4.60;;
22937;SDS011;11634;42.734;23.298;2023-02-01T05:52:56;5.90;;;4.63;;
22937;SDS011;11634;42.734;23.298;2023-02-01T05:55:26;6.37;;;3.80;;
22937;SDS011;11634;42.734;23.298;2023-02-01T05:58:09;8.47;;;4.40;;
22937;SDS011;11634;42.734;23.298;2023-02-01T06:00:35;6.60;;;4.77;;
22937;SDS011;11634;42.734;23.298;2023-02-01T06:03:00;5.03;;;4.47;;
22937;SDS011;11634;42.734;23.298;2023-02-01T06:05:26;8.60;;;4.97;;
22937;SDS011;11634;42.734;23.298;2023-02-01T06:07:52;6.60;;;4.37;;
22937;SDS011;11634;42.734;23.298;2023-02-01T06:10:18;7.97;;;4.90;;
22937;SDS011;11634;42.734;23.298;2023-02-01T06:12:44;8.50;;;6.10;;
22937;SDS011;11634;42.734;23.298;2023-02-01T06:15:12;5.47;;;4.00;;
22937;SDS011;11634;42.734;23.298;2023-02-01T06:17:43;10.07;;;6.00;;
22937;SDS011;11634;42.734;23.298;2023-02-01T06:20:10;9.53;;;6.43;;
22937;SDS011;11634;42.734;23.298;2023-02-01T06:22:37;8.03;;;5.57;;
22937;SDS011;11634;42.734;23.298;2023-02-01T06:25:05;7.93;;;6.17;;
22937;SDS011;11634;42.734;23.298;2023-02-01T06:27:32;14.03;;;5.00;;
22937;SDS011;11634;42.734;23.298;2023-02-01T06:29:59;6.43;;;4.30;;
22937;SDS011;11634;42.734;23.298;2023-02-01T06:32:26;7.93;;;4.83;;
22937;SDS011;11634;42.734;23.298;2023-02-01T06:34:52;8.07;;;3.97;;
22937;SDS011;11634;42.734;23.298;2023-02-01T06:37:19;5.20;;;4.00;;
22937;SDS011;11634;42.734;23.298;2023-02-01T06:39:46;6.70;;;3.60;;
22937;SDS011;11634;42.734;23.298;2023-02-01T06:42:13;6.73;;;4.33;;
22937;SDS011;11634;42.734;23.298;2023-02-01T06:44:39;6.30;;;3.80;;
22937;SDS011;11634;42.734;23.298;2023-02-01T06:47:05;5.00;;;3.57;;
22937;SDS011;11634;42.734;23.298;2023-02-01T06:49:32;8.00;;;3.87;;
22937;SDS011;11634;42.734;23.298;2023-02-01T06:51:59;6.20;;;4.83;;
22937;SDS011;11634;42.734;23.298;2023-02-01T06:54:28;4.13;;;3.40;;
22937;SDS011;11634;42.734;23.298;2023-02-01T06:56:59;4.40;;;3.23;;
22937;SDS011;11634;42.734;23.298;2023-02-01T06:59:26;4.90;;;2.10;;
22937;SDS011;11634;42.734;23.298;2023-02-01T07:01:53;7.47;;;3.80;;
22937;SDS011;11634;42.734;23.298;2023-02-01T07:04:18;3.73;;;2.60;;
22937;SDS011;11634;42.734;23.298;2023-02-01T07:06:45;6.03;;;3.20;;
22937;SDS011;11634;42.734;23.298;2023-02-01T07:09:10;7.43;;;3.70;;
22937;SDS011;11634;42.734;23.298;2023-02-01T07:11:38;9.50;;;3.43;;
22937;SDS011;11634;42.734;23.298;2023-02-01T07:14:09;6.10;;;3.10;;
22937;SDS011;11634;42.734;23.298;2023-02-01T07:16:36;7.10;;;3.83;;
22937;SDS011;11634;42.734;23.298;2023-02-01T07:19:02;4.70;;;3.40;;
22937;SDS011;11634;42.734;23.298;2023-02-01T07:21:27;5.00;;;2.90;;
22937;SDS011;11634;42.734;23.298;2023-02-01T07:23:54;4.20;;;3.23;;
22937;SDS011;11634;42.734;23.298;2023-02-01T07:26:19;6.23;;;3.17;;
22937;SDS011;11634;42.734;23.298;2023-02-01T07:28:45;7.73;;;3.90;;
22937;SDS011;11634;42.734;23.298;2023-02-01T07:31:13;7.37;;;4.00;;
22937;SDS011;11634;42.734;23.298;2023-02-01T07:33:40;7.17;;;3.93;;
22937;SDS011;11634;42.734;23.298;2023-02-01T07:36:07;5.67;;;3.17;;
22937;SDS011;11634;42.734;23.298;2023-02-01T07:38:36;6.20;;;3.37;;
22937;SDS011;11634;42.734;23.298;2023-02-01T07:41:03;12.03;;;3.47;;
22937;SDS011;11634;42.734;23.298;2023-02-01T07:43:30;5.30;;;2.73;;
22937;SDS011;11634;42.734;23.298;2023-02-01T07:45:57;5.03;;;3.50;;
22937;SDS011;11634;42.734;23.298;2023-02-01T07:48:23;3.10;;;2.70;;
22937;SDS011;11634;42.734;23.298;2023-02-01T07:50:58;7.03;;;3.47;;
22937;SDS011;11634;42.734;23.298;2023-02-01T07:53:23;3.83;;;2.33;;
22937;SDS011;11634;42.734;23.298;2023-02-01T07:55:49;4.70;;;3.00;;
22937;SDS011;11634;42.734;23.298;2023-02-01T07:58:16;5.23;;;2.90;;
22937;SDS011;11634;42.734;23.298;2023-02-01T08:00:41;5.50;;;3.00;;
22937;SDS011;11634;42.734;23.298;2023-02-01T08:03:27;4.30;;;2.97;;
22937;SDS011;11634;42.734;23.298;2023-02-01T08:05:55;4.33;;;3.13;;
22937;SDS011;11634;42.734;23.298;2023-02-01T08:08:20;4.50;;;3.03;;
22937;SDS011;11634;42.734;23.298;2023-02-01T08:10:46;6.40;;;2.80;;
22937;SDS011;11634;42.734;23.298;2023-02-01T08:13:12;4.40;;;2.40;;
22937;SDS011;11634;42.734;23.298;2023-02-01T08:15:38;6.53;;;3.37;;
22937;SDS011;11634;42.734;23.298;2023-02-01T08:18:04;5.30;;;2.60;;
22937;SDS011;11634;42.734;23.298;2023-02-01T08:20:34;5.13;;;2.97;;
22937;SDS011;11634;42.734;23.298;2023-02-01T08:23:02;8.07;;;3.33;;
22937;SDS011;11634;42.734;23.298;2023-02-01T08:25:28;5.53;;;2.97;;
22937;SDS011;11634;42.734;23.298;2023-02-01T08:27:54;3.67;;;2.73;;
22937;SDS011;11634;42.734;23.298;2023-02-01T08:30:20;4.97;;;2.83;;
22937;SDS011;11634;42.734;23.298;2023-02-01T08:32:46;6.57;;;3.43;;
22937;SDS011;11634;42.734;23.298;2023-02-01T08:35:13;5.67;;;3.40;;
22937;SDS011;11634;42.734;23.298;2023-02-01T08:37:39;8.37;;;2.80;;
22937;SDS011;11634;42.734;23.298;2023-02-01T08:40:04;6.03;;;4.47;;
22937;SDS011;11634;42.734;23.298;2023-02-01T08:42:31;5.27;;;3.27;;
22937;SDS011;11634;42.734;23.298;2023-02-01T08:45:15;4.30;;;2.58;;
22937;SDS011;11634;42.734;23.298;2023-02-01T08:47:52;4.97;;;3.58;;
22937;SDS011;11634;42.734;23.298;2023-02-01T08:50:20;4.55;;;2.70;;
22937;SDS011;11634;42.734;23.298;2023-02-01T08:52:46;4.03;;;2.58;;
22937;SDS011;11634;42.734;23.298;2023-02-01T08:55:12;5.47;;;3.22;;
22937;SDS011;11634;42.734;23.298;2023-02-01T08:57:38;5.27;;;2.53;;
22937;SDS011;11634;42.734;23.298;2023-02-01T09:00:05;6.10;;;2.85;;
22937;SDS011;11634;42.734;23.298;2023-02-01T09:02:34;3.42;;;1.85;;
22937;SDS011;11634;42.734;23.298;2023-02-01T09:04:59;3.47;;;2.13;;
22937;SDS011;11634;42.734;23.298;2023-02-01T09:07:25;6.28;;;2.65;;
22937;SDS011;11634;42.734;23.298;2023-02-01T09:09:50;2.13;;;1.58;;
22937;SDS011;11634;42.734;23.298;2023-02-01T09:12:16;6.88;;;3.28;;
22937;SDS011;11634;42.734;23.298;2023-02-01T09:14:41;9.93;;;2.30;;
22937;SDS011;11634;42.734;23.298;2023-02-01T09:17:07;4.05;;;2.00;;
22937;SDS011;11634;42.734;23.298;2023-02-01T09:19:32;3.65;;;2.20;;
22937;SDS011;11634;42.734;23.298;2023-02-01T09:21:58;5.15;;;2.72;;
22937;SDS011;11634;42.734;23.298;2023-02-01T09:24:23;5.15;;;2.70;;
22937;SDS011;11634;42.734;23.298;2023-02-01T09:26:49;4.63;;;2.38;;
22937;SDS011;11634;42.734;23.298;2023-02-01T09:29:15;4.10;;;2.00;;
22937;SDS011;11634;42.734;23.298;2023-02-01T09:31:40;6.35;;;2.50;;
22937;SDS011;11634;42.734;23.298;2023-02-01T09:34:06;1.40;;;1.30;;
22937;SDS011;11634;42.734;23.298;2023-02-01T09:36:32;2.92;;;1.83;;
22937;SDS011;11634;42.734;23.298;2023-02-01T09:38:58;5.47;;;2.15;;
22937;SDS011;11634;42.734;23.298;2023-02-01T09:47:16;4.78;;;1.70;;
22937;SDS011;11634;42.734;23.298;2023-02-01T09:50:08;1.98;;;1.48;;
22937;SDS011;11634;42.734;23.298;2023-02-01T09:52:43;4.32;;;2.03;;
22937;SDS011;11634;42.734;23.298;2023-02-01T09:55:20;4.40;;;2.03;;
22937;SDS011;11634;42.734;23.298;2023-02-01T10:00:42;2.17;;;1.60;;
22937;SDS011;11634;42.734;23.298;2023-02-01T10:03:15;4.32;;;2.10;;
22937;SDS011;11634;42.734;23.298;2023-02-01T10:05:53;4.10;;;1.95;;
22937;SDS011;11634;42.734;23.298;2023-02-01T10:08:25;2.70;;;1.55;;
22937;SDS011;11634;42.734;23.298;2023-02-01T10:10:56;4.25;;;2.13;;
22937;SDS011;11634;42.734;23.298;2023-02-01T10:13:50;5.47;;;2.45;;
22937;SDS011;11634;42.734;23.298;2023-02-01T10:16:41;5.47;;;2.50;;
22937;SDS011;11634;42.734;23.298;2023-02-01T10:19:28;4.57;;;2.70;;
22937;SDS011;11634;42.734;23.298;2023-02-01T10:22:43;4.22;;;2.55;;
22937;SDS011;11634;42.734;23.298;2023-02-01T10:27:43;5.00;;;2.17;;
22937;SDS011;11634;42.734;23.298;2023-02-01T10:32:44;2.53;;;1.92;;
22937;SDS011;11634;42.734;23.298;2023-02-01T10:35:14;6.57;;;2.70;;
22937;SDS011;11634;42.734;23.298;2023-02-01T10:37:43;4.43;;;2.00;;
22937;SDS011;11634;42.734;23.298;2023-02-01T10:43:00;5.20;;;2.50;;
22937;SDS011;11634;42.734;23.298;2023-02-01T10:45:27;2.90;;;1.83;;
22937;SDS011;11634;42.734;23.298;2023-02-01T10:47:56;2.85;;;1.73;;
22937;SDS011;11634;42.734;23.298;2023-02-01T10:53:29;4.32;;;2.72;;
22937;SDS011;11634;42.734;23.298;2023-02-01T10:56:07;2.53;;;1.80;;
22937;SDS011;11634;42.734;23.298;2023-02-01T10:58:45;4.50;;;1.80;;
22937;SDS011;11634;42.734;23.298;2023-02-01T11:01:26;3.28;;;1.85;;
22937;SDS011;11634;42.734;23.298;2023-02-01T11:04:07;4.95;;;1.70;;
22937;SDS011;11634;42.734;23.298;2023-02-01T11:06:37;4.32;;;2.78;;
22937;SDS011;11634;42.734;23.298;2023-02-01T11:11:33;3.53;;;1.73;;
22937;SDS011;11634;42.734;23.298;2023-02-01T11:14:34;3.55;;;1.92;;
22937;SDS011;11634;42.734;23.298;2023-02-01T11:20:05;2.00;;;1.10;;
22937;SDS011;11634;42.734;23.298;2023-02-01T11:22:38;2.67;;;1.52;;
22937;SDS011;11634;42.734;23.298;2023-02-01T11:25:14;3.28;;;1.52;;
22937;SDS011;11634;42.734;23.298;2023-02-01T11:27:42;2.40;;;1.45;;
22937;SDS011;11634;42.734;23.298;2023-02-01T11:30:13;3.45;;;1.70;;
22937;SDS011;11634;42.734;23.298;2023-02-01T11:32:46;2.72;;;1.88;;
22937;SDS011;11634;42.734;23.298;2023-02-01T11:35:16;3.53;;;1.40;;
22937;SDS011;11634;42.734;23.298;2023-02-01T11:37:45;4.57;;;1.75;;
22937;SDS011;11634;42.734;23.298;2023-02-01T11:40:28;3.80;;;1.80;;
22937;SDS011;11634;42.734;23.298;2023-02-01T11:43:01;3.85;;;1.92;;
22937;SDS011;11634;42.734;23.298;2023-02-01T11:45:37;2.90;;;1.55;;
22937;SDS011;11634;42.734;23.298;2023-02-01T11:48:07;5.75;;;2.08;;
22937;SDS011;11634;42.734;23.298;2023-02-01T11:50:40;6.18;;;1.55;;
22937;SDS011;11634;42.734;23.298;2023-02-01T11:53:22;3.90;;;1.77;;
22937;SDS011;11634;42.734;23.298;2023-02-01T11:58:19;2.22;;;1.20;;
22937;SDS011;11634;42.734;23.298;2023-02-01T12:15:45;3.22;;;1.33;;
22937;SDS011;11634;42.734;23.298;2023-02-01T12:18:35;3.20;;;1.60;;
22937;SDS011;11634;42.734;23.298;2023-02-01T12:24:23;2.80;;;1.20;;
22937;SDS011;11634;42.734;23.298;2023-02-01T12:27:02;2.72;;;1.00;;
22937;SDS011;11634;42.734;23.298;2023-02-01T12:35:38;3.47;;;1.40;;
22937;SDS011;11634;42.734;23.298;2023-02-01T12:40:54;1.63;;;1.40;;
22937;SDS011;11634;42.734;23.298;2023-02-01T12:46:45;4.40;;;2.03;;
22937;SDS011;11634;42.734;23.298;2023-02-01T12:49:15;1.80;;;1.20;;
22937;SDS011;11634;42.734;23.298;2023-02-01T12:51:50;2.45;;;1.67;;
22937;SDS011;11634;42.734;23.298;2023-02-01T12:54:30;1.92;;;1.40;;
22937;SDS011;11634;42.734;23.298;2023-02-01T12:56:59;2.97;;;1.67;;
22937;SDS011;11634;42.734;23.298;2023-02-01T12:59:30;3.78;;;1.45;;
22937;SDS011;11634;42.734;23.298;2023-02-01T13:02:06;1.95;;;1.65;;
22937;SDS011;11634;42.734;23.298;2023-02-01T13:04:49;1.27;;;1.10;;
22937;SDS011;11634;42.734;23.298;2023-02-01T13:07:29;2.00;;;1.27;;
22937;SDS011;11634;42.734;23.298;2023-02-01T13:10:05;1.88;;;1.30;;
22937;SDS011;11634;42.734;23.298;2023-02-01T13:12:43;1.98;;;1.27;;
22937;SDS011;11634;42.734;23.298;2023-02-01T13:17:42;1.67;;;1.38;;
22937;SDS011;11634;42.734;23.298;2023-02-01T13:20:30;2.42;;;1.83;;
22937;SDS011;11634;42.734;23.298;2023-02-01T13:23:03;3.17;;;1.25;;
22937;SDS011;11634;42.734;23.298;2023-02-01T13:25:39;2.28;;;1.25;;
22937;SDS011;11634;42.734;23.298;2023-02-01T13:28:14;2.17;;;1.15;;
22937;SDS011;11634;42.734;23.298;2023-02-01T13:33:32;2.20;;;1.40;;
22937;SDS011;11634;42.734;23.298;2023-02-01T13:41:31;2.83;;;1.67;;
22937;SDS011;11634;42.734;23.298;2023-02-01T13:44:03;2.92;;;1.55;;
22937;SDS011;11634;42.734;23.298;2023-02-01T13:46:42;3.10;;;1.50;;
22937;SDS011;11634;42.734;23.298;2023-02-01T13:49:29;2.78;;;1.20;;
22937;SDS011;11634;42.734;23.298;2023-02-01T13:52:02;2.47;;;1.30;;
22937;SDS011;11634;42.734;23.298;2023-02-01T13:54:38;4.20;;;1.52;;
22937;SDS011;11634;42.734;23.298;2023-02-01T13:57:06;2.80;;;1.90;;
22937;SDS011;11634;42.734;23.298;2023-02-01T14:00:05;2.78;;;1.60;;
22937;SDS011;11634;42.734;23.298;2023-02-01T14:07:35;5.47;;;2.30;;
22937;SDS011;11634;42.734;23.298;2023-02-01T14:13:04;2.60;;;1.77;;
22937;SDS011;11634;42.734;23.298;2023-02-01T14:15:37;4.25;;;1.83;;
22937;SDS011;11634;42.734;23.298;2023-02-01T14:18:09;2.20;;;1.65;;
22937;SDS011;11634;42.734;23.298;2023-02-01T14:26:21;3.92;;;2.22;;
22937;SDS011;11634;42.734;23.298;2023-02-01T14:34:40;2.63;;;1.58;;
22937;SDS011;11634;42.734;23.298;2023-02-01T14:43:11;1.92;;;1.30;;
22937;SDS011;11634;42.734;23.298;2023-02-01T14:55:49;2.65;;;2.00;;
22937;SDS011;11634;42.734;23.298;2023-02-01T15:01:03;2.90;;;1.42;;
22937;SDS011;11634;42.734;23.298;2023-02-01T15:06:56;2.45;;;1.63;;
22937;SDS011;11634;42.734;23.298;2023-02-01T15:09:27;3.60;;;2.22;;
22937;SDS011;11634;42.734;23.298;2023-02-01T15:14:39;2.67;;;2.20;;
22937;SDS011;11634;42.734;23.298;2023-02-01T15:17:37;5.13;;;2.80;;
22937;SDS011;11634;42.734;23.298;2023-02-01T15:20:05;3.08;;;2.10;;
22937;SDS011;11634;42.734;23.298;2023-02-01T15:22:41;6.60;;;2.30;;
22937;SDS011;11634;42.734;23.298;2023-02-01T15:25:20;4.93;;;1.80;;
22937;SDS011;11634;42.734;23.298;2023-02-01T15:27:47;2.60;;;1.98;;
22937;SDS011;11634;42.734;23.298;2023-02-01T15:30:17;3.45;;;2.08;;
22937;SDS011;11634;42.734;23.298;2023-02-01T15:32:45;5.10;;;2.95;;
22937;SDS011;11634;42.734;23.298;2023-02-01T15:43:30;11.45;;;4.78;;
22937;SDS011;11634;42.734;23.298;2023-02-01T15:46:03;6.18;;;3.38;;
22937;SDS011;11634;42.734;23.298;2023-02-01T15:48:41;9.60;;;3.38;;
22937;SDS011;11634;42.734;23.298;2023-02-01T15:51:16;4.38;;;3.50;;
22937;SDS011;11634;42.734;23.298;2023-02-01T15:53:44;5.95;;;3.70;;
22937;SDS011;11634;42.734;23.298;2023-02-01T15:56:13;5.25;;;3.13;;
22937;SDS011;11634;42.734;23.298;2023-02-01T15:58:41;5.82;;;3.60;;
22937;SDS011;11634;42.734;23.298;2023-02-01T16:01:10;7.22;;;5.40;;
22937;SDS011;11634;42.734;23.298;2023-02-01T16:03:43;10.27;;;6.43;;
22937;SDS011;11634;42.734;23.298;2023-02-01T16:08:55;8.85;;;5.25;;
22937;SDS011;11634;42.734;23.298;2023-02-01T16:11:26;6.15;;;4.10;;
22937;SDS011;11634;42.734;23.298;2023-02-01T16:13:57;11.82;;;7.25;;
22937;SDS011;11634;42.734;23.298;2023-02-01T16:16:26;9.15;;;5.22;;
22937;SDS011;11634;42.734;23.298;2023-02-01T16:18:53;7.70;;;4.50;;
22937;SDS011;11634;42.734;23.298;2023-02-01T16:21:19;5.53;;;3.50;;
22937;SDS011;11634;42.734;23.298;2023-02-01T16:23:48;8.65;;;3.78;;
22937;SDS011;11634;42.734;23.298;2023-02-01T16:26:17;4.05;;;2.95;;
22937;SDS011;11634;42.734;23.298;2023-02-01T16:28:43;4.85;;;2.95;;
22937;SDS011;11634;42.734;23.298;2023-02-01T16:31:11;4.65;;;3.20;;
22937;SDS011;11634;42.734;23.298;2023-02-01T16:33:44;7.68;;;3.67;;
22937;SDS011;11634;42.734;23.298;2023-02-01T16:36:11;7.10;;;4.22;;
22937;SDS011;11634;42.734;23.298;2023-02-01T16:38:38;6.30;;;4.35;;
22937;SDS011;11634;42.734;23.298;2023-02-01T16:41:04;6.85;;;4.32;;
22937;SDS011;11634;42.734;23.298;2023-02-01T16:43:30;8.88;;;5.60;;
22937;SDS011;11634;42.734;23.298;2023-02-01T16:45:58;10.02;;;5.40;;
22937;SDS011;11634;42.734;23.298;2023-02-01T16:48:31;11.40;;;5.53;;
22937;SDS011;11634;42.734;23.298;2023-02-01T16:51:01;8.88;;;4.40;;
22937;SDS011;11634;42.734;23.298;2023-02-01T16:53:32;8.32;;;3.40;;
22937;SDS011;11634;42.734;23.298;2023-02-01T16:55:57;8.38;;;4.93;;
22937;SDS011;11634;42.734;23.298;2023-02-01T16:58:23;8.13;;;4.88;;
22937;SDS011;11634;42.734;23.298;2023-02-01T17:00:50;8.88;;;5.55;;
22937;SDS011;11634;42.734;23.298;2023-02-01T17:03:18;11.35;;;7.63;;
22937;SDS011;11634;42.734;23.298;2023-02-01T17:05:47;17.58;;;8.88;;
22937;SDS011;11634;42.734;23.298;2023-02-01T17:08:34;17.38;;;9.48;;
22937;SDS011;11634;42.734;23.298;2023-02-01T17:11:02;18.85;;;10.02;;
22937;SDS011;11634;42.734;23.298;2023-02-01T17:13:30;13.93;;;8.25;;
22937;SDS011;11634;42.734;23.298;2023-02-01T17:16:06;14.07;;;7.97;;
22937;SDS011;11634;42.734;23.298;2023-02-01T17:18:40;12.68;;;6.10;;
22937;SDS011;11634;42.734;23.298;2023-02-01T17:21:06;9.02;;;5.63;;
22937;SDS011;11634;42.734;23.298;2023-02-01T17:23:34;9.15;;;5.22;;
22937;SDS011;11634;42.734;23.298;2023-02-01T17:26:00;11.23;;;5.80;;
22937;SDS011;11634;42.734;23.298;2023-02-01T17:28:27;12.80;;;6.38;;
22937;SDS011;11634;42.734;23.298;2023-02-01T17:30:54;10.77;;;7.10;;
22937;SDS011;11634;42.734;23.298;2023-02-01T17:35:46;13.52;;;8.40;;
22937;SDS011;11634;42.734;23.298;2023-02-01T17:38:12;9.98;;;6.47;;
22937;SDS011;11634;42.734;23.298;2023-02-01T17:40:38;15.60;;;9.75;;
22937;SDS011;11634;42.734;23.298;2023-02-01T17:43:08;15.43;;;8.50;;